Time;durP1;ratioP1;P1;durP2;ratioP2;P2;SDS_P1;SDS_P2;PMS_P1;PMS_P2;Temp;Humidity;BMP_temperature;BMP_pressure;BME280_temperature;BME280_humidity;BME280_pressure;Samples;Min_cycle;Max_cycle;Signal;HPM_P1;HPM_P2
2022/01/09 00:02:02;;;;;;;14.30;7.93;;;;;;;-3.18;79.73;100057.53;5044922;28;20337;-61
2022/01/09 00:04:28;;;;;;;13.20;8.10;;;;;;;-3.03;80.13;100052.19;5048475;28;20269;-61
2022/01/09 00:06:53;;;;;;;13.10;8.07;;;;;;;-2.89;80.16;100045.13;5039426;28;20033;-60
2022/01/09 00:09:19;;;;;;;15.07;7.80;;;;;;;-2.83;79.24;100049.56;5045763;28;20097;-60
2022/01/09 00:11:44;;;;;;;11.48;7.07;;;;;;;-2.93;79.11;100042.44;5044364;28;20041;-60
2022/01/09 00:14:10;;;;;;;10.95;7.75;;;;;;;-3.30;80.51;100036.78;5047223;28;20036;-60
2022/01/09 00:16:35;;;;;;;10.60;7.60;;;;;;;-3.07;80.85;100046.94;5046220;28;20310;-61
2022/01/09 00:19:01;;;;;;;15.35;7.97;;;;;;;-2.91;79.76;100051.78;5044646;28;20215;-60
2022/01/09 00:21:27;;;;;;;12.15;7.95;;;;;;;-2.91;80.19;100056.00;5044389;28;20038;-60
2022/01/09 00:23:53;;;;;;;12.23;8.13;;;;;;;-2.84;79.59;100055.44;5046370;28;20055;-59
2022/01/09 00:26:18;;;;;;;11.20;7.55;;;;;;;-2.88;79.42;100051.06;5044755;28;20184;-59
2022/01/09 00:28:44;;;;;;;12.48;7.25;;;;;;;-3.42;78.84;99998.28;5042836;28;20029;-59
2022/01/09 00:31:09;;;;;;;11.43;7.38;;;;;;;-3.08;79.95;100042.69;5047097;28;20029;-59
2022/01/09 00:33:35;;;;;;;10.70;6.93;;;;;;;-3.00;79.88;100051.44;5049208;28;20025;-59
2022/01/09 00:36:00;;;;;;;12.15;6.78;;;;;;;-3.12;79.86;100056.91;5050749;28;20025;-60
2022/01/09 00:38:26;;;;;;;12.35;6.75;;;;;;;-3.17;78.59;100040.66;5045085;28;20041;-59
2022/01/09 00:40:52;;;;;;;10.27;6.05;;;;;;;-3.26;78.91;100032.69;5043928;28;20037;-60
2022/01/09 00:43:17;;;;;;;12.25;6.93;;;;;;;-3.22;79.57;100022.75;5048290;28;20033;-60
2022/01/09 00:45:43;;;;;;;10.70;7.00;;;;;;;-3.18;79.51;100018.66;5051021;28;20029;-59
2022/01/09 00:48:09;;;;;;;9.10;6.60;;;;;;;-3.06;78.98;100020.81;5044742;28;20040;-60
2022/01/09 00:50:36;;;;;;;12.15;7.30;;;;;;;-3.11;78.84;100010.50;5043655;28;20091;-60
2022/01/09 00:53:06;;;;;;;14.55;7.78;;;;;;;-3.40;79.68;100022.88;5044386;28;20041;-61
2022/01/09 00:55:32;;;;;;;17.77;9.02;;;;;;;-3.46;80.94;100040.34;5044063;28;20318;-60
2022/01/09 00:57:58;;;;;;;13.27;8.85;;;;;;;-3.40;79.78;100030.47;5043478;28;20083;-60
2022/01/09 01:00:23;;;;;;;11.40;8.38;;;;;;;-3.18;79.78;100028.78;5049173;28;20029;-59
2022/01/09 01:02:49;;;;;;;15.13;9.10;;;;;;;-3.38;78.81;100030.53;5052188;28;20044;-60
2022/01/09 01:05:15;;;;;;;15.65;8.60;;;;;;;-3.39;79.47;100021.19;5059173;28;20032;-60
2022/01/09 01:07:41;;;;;;;13.13;8.07;;;;;;;-3.58;79.97;100017.91;5060598;28;20048;-60
2022/01/09 01:10:07;;;;;;;13.35;8.85;;;;;;;-3.42;79.72;100024.50;5061619;28;20059;-60
2022/01/09 01:12:33;;;;;;;11.27;8.10;;;;;;;-3.48;79.05;99994.72;5058692;28;20055;-60
2022/01/09 01:14:58;;;;;;;16.95;9.18;;;;;;;-3.41;79.42;100011.00;5045191;28;20365;-60
2022/01/09 01:17:24;;;;;;;12.80;8.05;;;;;;;-3.51;79.73;100008.91;5054696;28;20040;-60
2022/01/09 01:19:50;;;;;;;14.30;9.13;;;;;;;-3.32;79.31;100011.38;5058751;28;20051;-60
2022/01/09 01:22:16;;;;;;;13.98;9.35;;;;;;;-3.40;78.50;100007.69;5052513;28;20037;-60
2022/01/09 01:24:42;;;;;;;17.50;9.30;;;;;;;-3.31;79.17;100000.47;5044530;28;20076;-60
2022/01/09 01:27:09;;;;;;;13.50;8.10;;;;;;;-3.82;78.71;99998.41;5078523;28;20036;-60
2022/01/09 01:29:36;;;;;;;14.38;9.40;;;;;;;-3.69;79.39;100002.31;5057438;28;20038;-59
2022/01/09 01:32:02;;;;;;;13.88;8.75;;;;;;;-3.91;79.76;99994.63;5060904;28;20025;-60
2022/01/09 01:34:28;;;;;;;19.77;10.98;;;;;;;-3.79;79.55;100001.84;5029636;28;20034;-60
2022/01/09 01:36:53;;;;;;;14.55;9.43;;;;;;;-3.65;79.08;99998.22;5060224;28;20225;-60
2022/01/09 01:39:19;;;;;;;14.68;9.68;;;;;;;-3.90;79.62;99982.03;5058231;28;20073;-60
2022/01/09 01:41:44;;;;;;;15.77;10.20;;;;;;;-3.92;80.06;99992.91;5058339;28;20341;-60
2022/01/09 01:44:11;;;;;;;13.23;9.20;;;;;;;-4.39;78.88;99920.19;5058400;28;20032;-59
2022/01/09 01:46:38;;;;;;;14.05;9.25;;;;;;;-3.73;79.58;99997.94;5058320;28;20314;-59
2022/01/09 01:49:05;;;;;;;14.45;9.30;;;;;;;-3.70;78.87;99987.06;5053495;28;20037;-60
2022/01/09 01:51:34;;;;;;;13.73;9.07;;;;;;;-3.86;78.99;99990.66;5044989;28;20028;-61
2022/01/09 01:54:00;;;;;;;15.85;8.60;;;;;;;-3.71;78.99;99988.72;5044017;28;20025;-61
2022/01/09 01:56:26;;;;;;;12.95;8.85;;;;;;;-3.62;78.98;99980.63;5043153;28;20210;-61
2022/01/09 01:58:53;;;;;;;12.25;8.98;;;;;;;-3.76;78.29;99961.50;5060454;28;20032;-60
2022/01/09 02:01:19;;;;;;;13.40;8.70;;;;;;;-3.74;79.24;99958.22;5057248;28;20033;-60
2022/01/09 02:03:44;;;;;;;14.07;8.60;;;;;;;-3.90;79.29;99968.56;5044238;28;20253;-60
2022/01/09 02:06:15;;;;;;;11.98;8.52;;;;;;;-3.82;78.79;99950.34;5055816;28;20376;-59
2022/01/09 02:08:43;;;;;;;15.88;8.82;;;;;;;-3.58;78.58;99974.03;5042655;28;20032;-60
2022/01/09 02:11:10;;;;;;;13.15;8.18;;;;;;;-3.89;78.10;99884.25;5042886;28;20029;-60
2022/01/09 02:13:39;;;;;;;15.60;9.45;;;;;;;-3.62;78.19;99944.34;5042513;28;20033;-60
2022/01/09 02:16:05;;;;;;;16.17;9.25;;;;;;;-3.57;77.90;99958.06;5043057;28;20100;-60
2022/01/09 02:18:31;;;;;;;13.38;9.00;;;;;;;-3.70;78.14;99959.25;5046020;28;20279;-60
2022/01/09 02:20:57;;;;;;;12.82;8.68;;;;;;;-3.69;79.08;99958.41;5057370;28;20245;-60
2022/01/09 02:23:22;;;;;;;14.02;8.05;;;;;;;-3.62;78.18;99946.88;5042530;28;20040;-60
2022/01/09 02:25:49;;;;;;;13.98;8.90;;;;;;;-3.76;79.13;99949.72;5060040;28;20036;-60
2022/01/09 02:28:16;;;;;;;12.65;9.07;;;;;;;-3.62;78.45;99955.31;5059579;28;20035;-60
2022/01/09 02:30:42;;;;;;;14.52;9.52;;;;;;;-3.68;77.97;99938.25;5057637;28;20096;-59
2022/01/09 02:33:10;;;;;;;15.38;10.07;;;;;;;-3.78;78.37;99936.13;5053233;28;20079;-60
2022/01/09 02:35:37;;;;;;;15.30;9.57;;;;;;;-3.72;78.21;99935.53;5053280;28;20036;-59
2022/01/09 02:38:04;;;;;;;16.95;9.93;;;;;;;-3.58;78.21;99934.41;5048377;28;20084;-60
2022/01/09 02:40:30;;;;;;;16.55;10.80;;;;;;;-3.77;78.92;99942.09;5042438;28;20034;-59
2022/01/09 02:42:55;;;;;;;20.23;11.18;;;;;;;-4.01;78.83;99943.66;5043403;28;20037;-60
2022/01/09 02:45:23;;;;;;;18.98;11.40;;;;;;;-4.19;80.09;99942.88;5043446;28;20043;-60
2022/01/09 02:47:51;;;;;;;17.40;11.32;;;;;;;-4.19;80.36;99943.78;5043162;28;20211;-59
2022/01/09 02:52:54;;;;;;;15.43;10.45;;;;;;;-4.00;80.31;99931.88;5042656;28;20342;-59
2022/01/09 02:55:22;;;;;;;18.42;12.10;;;;;;;-4.25;80.01;99940.09;5041431;28;20033;-60
2022/01/09 02:57:52;;;;;;;22.13;13.27;;;;;;;-4.14;79.74;99993.69;5057019;28;20029;-59
2022/01/09 03:00:20;;;;;;;23.13;13.68;;;;;;;-4.97;80.18;99824.19;5052303;28;20048;-60
2022/01/09 03:02:46;;;;;;;19.40;13.73;;;;;;;-4.13;80.94;99938.09;5047365;28;20033;-60
2022/01/09 03:05:12;;;;;;;23.02;14.57;;;;;;;-4.19;80.28;99921.00;5052207;28;20037;-60
2022/01/09 03:07:40;;;;;;;23.75;13.85;;;;;;;-4.05;79.69;99931.69;5057392;28;20029;-60
2022/01/09 03:10:07;;;;;;;23.52;14.70;;;;;;;-4.08;79.21;99938.28;5056222;28;20098;-60
2022/01/09 03:12:33;;;;;;;22.60;13.95;;;;;;;-3.85;78.80;99931.63;5057383;28;20031;-60
2022/01/09 03:14:59;;;;;;;24.48;14.43;;;;;;;-3.78;78.80;99936.13;5056621;28;20033;-59
2022/01/09 03:17:25;;;;;;;25.90;14.68;;;;;;;-3.76;78.54;99936.19;5041103;28;20087;-59
2022/01/09 03:19:51;;;;;;;23.85;14.02;;;;;;;-3.65;79.47;99933.31;5058210;28;20301;-59
2022/01/09 03:22:17;;;;;;;22.88;12.93;;;;;;;-3.76;77.96;99919.38;5059495;28;20040;-60
2022/01/09 03:24:43;;;;;;;19.33;12.38;;;;;;;-3.64;77.75;99929.97;5057239;28;20040;-59
2022/01/09 03:27:10;;;;;;;19.25;12.73;;;;;;;-3.68;76.93;99922.19;5057103;28;20021;-60
2022/01/09 03:29:36;;;;;;;18.63;11.38;;;;;;;-3.77;77.82;99925.22;5057212;28;20171;-59
2022/01/09 03:32:02;;;;;;;20.65;11.50;;;;;;;-3.71;77.78;99922.94;5057121;28;20098;-60
2022/01/09 03:34:28;;;;;;;21.67;10.98;;;;;;;-3.77;78.37;99916.78;5052562;28;20025;-60
2022/01/09 03:36:53;;;;;;;17.90;10.48;;;;;;;-3.60;78.09;99920.84;5053858;28;20196;-60
2022/01/09 03:39:19;;;;;;;17.73;10.57;;;;;;;-3.67;77.98;99912.13;5042624;28;20098;-60
2022/01/09 03:41:45;;;;;;;20.45;10.68;;;;;;;-3.60;78.01;99912.38;5046231;28;20143;-60
2022/01/09 03:44:10;;;;;;;18.55;9.55;;;;;;;-3.63;77.82;99905.53;5045509;28;20028;-60
2022/01/09 03:46:36;;;;;;;18.55;9.05;;;;;;;-3.91;77.15;99914.53;5063042;28;20029;-60
2022/01/09 03:49:02;;;;;;;17.17;9.52;;;;;;;-4.07;78.32;99902.94;5044779;28;20037;-59
2022/01/09 03:51:32;;;;;;;18.50;9.13;;;;;;;-4.06;78.32;99901.28;5056918;28;20230;-58
2022/01/09 03:53:59;;;;;;;14.65;9.30;;;;;;;-4.07;77.36;99900.41;5046022;28;20037;-59
2022/01/09 03:56:25;;;;;;;14.50;9.18;;;;;;;-4.06;78.57;99898.75;5054328;28;20322;-60
2022/01/09 03:58:51;;;;;;;15.48;8.95;;;;;;;-4.00;78.37;99893.94;5052903;28;20033;-60
2022/01/09 04:01:16;;;;;;;14.60;8.90;;;;;;;-4.18;77.39;99889.84;5048093;28;20099;-60
2022/01/09 04:03:42;;;;;;;15.65;8.82;;;;;;;-4.18;77.11;99883.94;5047697;28;20090;-60
2022/01/09 04:06:08;;;;;;;14.18;9.32;;;;;;;-4.05;77.21;99896.28;5060818;28;20037;-60
2022/01/09 04:08:34;;;;;;;14.57;8.65;;;;;;;-3.86;77.62;99889.44;5044559;28;20025;-60
2022/01/09 04:11:03;;;;;;;17.40;8.55;;;;;;;-3.89;76.15;99887.66;5062475;28;20314;-59
2022/01/09 04:13:28;;;;;;;15.20;8.48;;;;;;;-3.97;75.92;99903.34;5046010;28;20310;-60
2022/01/09 04:15:54;;;;;;;18.08;9.32;;;;;;;-3.99;75.08;99904.13;5052147;28;20029;-60
2022/01/09 04:18:21;;;;;;;15.23;9.38;;;;;;;-4.11;76.30;99849.66;5045394;28;20063;-60
2022/01/09 04:20:48;;;;;;;16.25;8.73;;;;;;;-3.65;75.71;99910.53;5054588;28;20108;-60
2022/01/09 04:23:15;;;;;;;13.73;8.43;;;;;;;-3.76;73.54;99904.19;5052868;28;20041;-60
2022/01/09 04:25:41;;;;;;;11.18;7.60;;;;;;;-3.68;74.12;99905.38;5049958;28;20035;-60
2022/01/09 04:28:07;;;;;;;17.50;7.90;;;;;;;-3.79;73.49;99896.47;5058215;28;20060;-60
2022/01/09 04:30:33;;;;;;;17.10;9.15;;;;;;;-3.78;73.83;99890.59;5045796;28;20086;-60
2022/01/09 04:32:59;;;;;;;13.10;8.32;;;;;;;-3.91;72.91;99888.41;5060176;28;20033;-59
2022/01/09 04:35:24;;;;;;;15.32;8.13;;;;;;;-3.80;72.37;99894.75;5044421;28;20037;-61
2022/01/09 04:37:50;;;;;;;12.63;8.13;;;;;;;-3.99;73.13;99891.47;5045774;28;20033;-59
2022/01/09 04:40:19;;;;;;;13.23;7.57;;;;;;;-4.20;74.03;99885.56;5059126;28;20057;-59
2022/01/09 04:42:48;;;;;;;12.80;7.35;;;;;;;-4.11;74.17;99885.91;5057275;28;20056;-59
2022/01/09 04:45:16;;;;;;;13.23;8.15;;;;;;;-3.91;73.41;99890.91;5058930;28;20028;-59
2022/01/09 04:47:45;;;;;;;13.77;8.18;;;;;;;-3.89;72.02;99882.59;5051050;28;20376;-59
2022/01/09 04:50:16;;;;;;;14.85;7.78;;;;;;;-3.78;72.14;99875.41;5051115;28;20025;-59
2022/01/09 04:52:42;;;;;;;11.38;7.50;;;;;;;-3.64;72.29;99884.41;5052315;28;20044;-60
2022/01/09 04:55:08;;;;;;;12.15;7.00;;;;;;;-3.72;72.64;99870.63;5047446;28;20032;-60
2022/01/09 04:57:34;;;;;;;14.90;7.47;;;;;;;-3.81;71.27;99870.25;5058775;28;20033;-60
2022/01/09 04:59:59;;;;;;;12.98;7.22;;;;;;;-3.83;71.13;99861.75;5059117;28;20025;-60
2022/01/09 05:02:25;;;;;;;11.32;7.38;;;;;;;-3.73;72.37;99848.63;5052053;28;20029;-60
2022/01/09 05:04:51;;;;;;;14.45;6.90;;;;;;;-3.66;70.69;99865.78;5059826;28;20221;-60
2022/01/09 05:07:16;;;;;;;10.82;7.13;;;;;;;-3.66;70.75;99860.72;5059129;28;20041;-60
2022/01/09 05:09:42;;;;;;;14.25;6.75;;;;;;;-3.65;70.96;99859.94;5049553;28;20033;-60
2022/01/09 05:12:08;;;;;;;9.98;6.65;;;;;;;-3.84;69.43;99854.94;5054088;28;20039;-60
2022/01/09 05:14:33;;;;;;;8.40;5.53;;;;;;;-3.97;69.59;99865.41;5056315;28;20036;-60
2022/01/09 05:16:59;;;;;;;10.80;6.38;;;;;;;-3.85;69.26;99863.31;5058740;28;20032;-60
2022/01/09 05:19:28;;;;;;;10.50;6.40;;;;;;;-3.72;68.38;99865.56;5058634;28;20025;-60
2022/01/09 05:21:56;;;;;;;11.48;6.63;;;;;;;-4.14;68.74;99792.25;5057586;28;20025;-60
2022/01/09 05:24:22;;;;;;;10.60;6.55;;;;;;;-3.79;67.99;99863.59;5059899;28;20036;-60
2022/01/09 05:26:48;;;;;;;10.18;5.85;;;;;;;-3.71;68.09;99879.91;5025027;28;20021;-62
2022/01/09 05:29:14;;;;;;;10.80;6.22;;;;;;;-3.95;67.59;99881.47;5057509;28;20041;-60
2022/01/09 05:31:39;;;;;;;12.90;5.70;;;;;;;-3.90;67.13;99895.19;5058918;28;20036;-60
2022/01/09 05:34:06;;;;;;;11.85;5.97;;;;;;;-3.91;67.91;99881.66;5033763;28;20092;-59
2022/01/09 05:36:32;;;;;;;10.93;6.03;;;;;;;-3.86;67.26;99884.41;5050440;28;20034;-59
2022/01/09 05:38:58;;;;;;;9.93;5.90;;;;;;;-3.76;67.24;99889.00;5057904;28;20052;-59
2022/01/09 05:41:24;;;;;;;9.15;5.30;;;;;;;-4.04;67.34;99887.03;5049258;28;20032;-59
2022/01/09 05:43:49;;;;;;;10.05;6.13;;;;;;;-3.76;68.62;99904.19;5057905;28;20043;-59
2022/01/09 05:46:15;;;;;;;11.10;5.55;;;;;;;-3.66;66.61;99898.69;5052271;28;20068;-60
2022/01/09 05:48:41;;;;;;;10.00;6.45;;;;;;;-3.66;66.83;99903.75;5058951;28;20033;-60
2022/01/09 05:51:06;;;;;;;9.77;6.13;;;;;;;-3.79;66.72;99893.94;5041176;28;20045;-60
2022/01/09 05:53:32;;;;;;;11.00;5.82;;;;;;;-3.70;65.77;99891.78;5043023;28;20099;-60
2022/01/09 05:55:58;;;;;;;12.13;6.55;;;;;;;-3.67;66.45;99906.22;5043873;28;20040;-60
2022/01/09 05:58:23;;;;;;;10.25;6.50;;;;;;;-3.93;66.50;99900.97;5050679;28;20029;-59
2022/01/09 06:00:49;;;;;;;9.73;5.80;;;;;;;-3.87;66.19;99906.28;5042576;28;20052;-60
2022/01/09 06:03:15;;;;;;;10.77;5.85;;;;;;;-3.68;66.01;99912.94;5051341;28;20032;-60
2022/01/09 06:05:40;;;;;;;9.80;5.93;;;;;;;-3.83;65.87;99909.81;5057892;28;20067;-60
2022/01/09 06:08:06;;;;;;;11.77;6.38;;;;;;;-3.68;65.81;99904.47;5055892;28;20048;-60
2022/01/09 06:10:31;;;;;;;11.73;5.97;;;;;;;-3.69;65.55;99911.22;5043307;28;20021;-60
2022/01/09 06:12:57;;;;;;;14.77;6.70;;;;;;;-3.91;65.68;99906.09;5058352;28;20037;-60
2022/01/09 06:15:23;;;;;;;12.32;6.28;;;;;;;-3.91;65.88;99904.41;5060010;28;20025;-60
2022/01/09 06:17:48;;;;;;;11.18;5.85;;;;;;;-3.97;64.58;99905.88;5060319;28;20029;-59
2022/01/09 06:20:15;;;;;;;9.23;5.50;;;;;;;-3.94;63.83;99898.41;5043303;28;20219;-59
2022/01/09 06:22:42;;;;;;;9.60;5.70;;;;;;;-3.96;63.54;99897.44;5043604;28;20041;-59
2022/01/09 06:25:08;;;;;;;10.70;5.72;;;;;;;-3.89;64.79;99897.78;5054128;28;20055;-59
2022/01/09 06:27:34;;;;;;;10.82;5.95;;;;;;;-4.02;63.27;99898.94;5057674;28;20033;-59
2022/01/09 06:30:00;;;;;;;7.72;5.70;;;;;;;-4.08;64.15;99891.09;5050226;28;20029;-59
2022/01/09 06:32:25;;;;;;;8.38;5.20;;;;;;;-4.16;63.68;99905.13;5057679;28;20029;-59
2022/01/09 06:34:51;;;;;;;7.90;5.15;;;;;;;-4.04;63.91;99908.13;5045567;28;20041;-60
2022/01/09 06:37:17;;;;;;;12.18;6.00;;;;;;;-3.92;62.94;99909.41;5057569;28;20091;-60
2022/01/09 06:39:43;;;;;;;9.30;5.28;;;;;;;-4.04;63.04;99908.13;5046229;28;20049;-60
2022/01/09 06:42:09;;;;;;;10.18;6.32;;;;;;;-3.87;64.29;99915.53;5059926;28;20329;-59
2022/01/09 06:44:35;;;;;;;8.82;5.63;;;;;;;-3.92;63.41;99911.94;5058144;28;20048;-59
2022/01/09 06:47:01;;;;;;;12.55;5.85;;;;;;;-3.77;62.71;99910.03;5056307;28;20032;-60
2022/01/09 06:49:26;;;;;;;9.95;6.18;;;;;;;-3.70;63.12;99914.53;5045185;28;20034;-59
2022/01/09 06:51:52;;;;;;;11.90;5.85;;;;;;;-3.55;63.67;99903.28;5046196;28;20399;-59
2022/01/09 06:54:18;;;;;;;8.20;5.55;;;;;;;-3.44;63.14;99914.69;5041853;28;20030;-59
2022/01/09 06:56:44;;;;;;;9.82;5.82;;;;;;;-3.63;61.65;99915.66;5046483;28;20039;-59
2022/01/09 06:59:09;;;;;;;9.57;5.97;;;;;;;-3.79;62.23;99899.00;5055695;28;20025;-59
2022/01/09 07:01:35;;;;;;;9.52;6.53;;;;;;;-3.53;62.30;99906.75;5058064;28;20029;-59
2022/01/09 07:04:00;;;;;;;8.20;5.70;;;;;;;-3.67;61.80;99912.13;5041221;28;20041;-59
2022/01/09 07:06:26;;;;;;;8.85;5.93;;;;;;;-3.70;62.30;99904.41;5056247;28;20048;-59
2022/01/09 07:08:52;;;;;;;10.52;6.03;;;;;;;-3.44;63.17;99907.09;5057485;28;20083;-59
2022/01/09 07:11:17;;;;;;;9.25;5.32;;;;;;;-3.42;61.10;99905.50;5055586;28;20045;-59
2022/01/09 07:13:43;;;;;;;11.93;6.05;;;;;;;-3.36;62.78;99905.72;5055835;28;20021;-59
2022/01/09 07:16:08;;;;;;;10.27;5.78;;;;;;;-3.35;61.65;99909.13;5049805;28;20037;-59
2022/01/09 07:18:34;;;;;;;11.85;5.93;;;;;;;-3.52;60.57;99905.94;5043810;28;20100;-59
2022/01/09 07:21:01;;;;;;;11.70;5.65;;;;;;;-3.36;60.98;99900.66;5045079;28;20029;-60
2022/01/09 07:23:26;;;;;;;9.38;5.78;;;;;;;-3.35;60.95;99912.53;5046125;28;20298;-60
2022/01/09 07:25:52;;;;;;;10.07;6.07;;;;;;;-3.40;59.57;99908.09;5060678;28;20067;-59
2022/01/09 07:28:18;;;;;;;9.95;5.53;;;;;;;-3.26;61.35;99904.41;5044277;28;20056;-59
2022/01/09 07:30:43;;;;;;;9.40;5.70;;;;;;;-3.47;60.03;99891.78;5061549;28;20062;-60
2022/01/09 07:33:09;;;;;;;9.35;5.65;;;;;;;-3.24;61.08;99894.34;5055268;28;20324;-59
2022/01/09 07:35:35;;;;;;;10.65;5.80;;;;;;;-3.11;61.90;99886.38;5056720;28;20150;-60
2022/01/09 07:38:01;;;;;;;9.73;5.95;;;;;;;-3.07;60.17;99894.97;5059326;28;20032;-60
2022/01/09 07:40:28;;;;;;;11.35;5.45;;;;;;;-3.11;59.35;99891.44;5052391;28;20045;-59
2022/01/09 07:42:54;;;;;;;9.95;6.25;;;;;;;-3.03;61.18;99890.06;5046170;28;20025;-60
2022/01/09 07:45:24;;;;;;;10.35;5.78;;;;;;;-2.86;60.90;99893.22;5049705;28;20079;-60
2022/01/09 07:47:50;;;;;;;8.55;5.60;;;;;;;-2.91;59.47;99892.16;5057694;28;20048;-60
2022/01/09 07:50:16;;;;;;;9.75;5.15;;;;;;;-2.93;60.37;99893.78;5043047;28;20041;-60
2022/01/09 07:52:42;;;;;;;8.02;5.43;;;;;;;-2.92;58.86;99879.44;5052398;28;20056;-60
2022/01/09 07:55:09;;;;;;;9.05;5.28;;;;;;;-2.73;60.48;99897.03;5062750;28;20051;-59
2022/01/09 07:57:36;;;;;;;10.05;5.28;;;;;;;-2.72;59.55;99900.44;5061551;28;20055;-59
2022/01/09 08:00:04;;;;;;;9.93;5.68;;;;;;;-2.86;58.77;99899.97;5046715;28;20033;-59
2022/01/09 08:02:30;;;;;;;9.00;5.88;;;;;;;-2.91;59.25;99906.53;5045523;28;20108;-60
2022/01/09 08:04:56;;;;;;;8.95;5.78;;;;;;;-2.93;60.40;99898.88;5055016;28;20217;-60
2022/01/09 08:07:21;;;;;;;10.40;5.80;;;;;;;-2.76;61.78;99894.41;5053304;28;20021;-60
2022/01/09 08:09:47;;;;;;;12.80;6.07;;;;;;;-2.68;61.29;99903.16;5046010;28;20037;-61
2022/01/09 08:12:14;;;;;;;9.60;5.68;;;;;;;-2.80;59.43;99907.78;5048348;28;20032;-59
2022/01/09 08:14:41;;;;;;;10.68;5.50;;;;;;;-3.23;60.03;99876.66;5059501;28;20063;-61
2022/01/09 08:17:07;;;;;;;8.48;4.85;;;;;;;-3.28;61.04;99907.69;5045633;28;20314;-60
2022/01/09 08:19:33;;;;;;;8.30;5.07;;;;;;;-3.37;60.61;99911.59;5044903;28;20040;-59
2022/01/09 08:21:58;;;;;;;9.75;5.35;;;;;;;-3.04;62.66;99913.66;5061786;28;20096;-61
2022/01/09 08:24:24;;;;;;;11.93;5.90;;;;;;;-2.99;61.20;99907.09;5059529;28;20310;-63
2022/01/09 08:26:50;;;;;;;7.85;5.07;;;;;;;-2.82;62.55;99894.16;5047921;28;20025;-60
2022/01/09 08:29:16;;;;;;;10.38;5.30;;;;;;;-2.93;60.71;99898.00;5050092;28;20318;-61
2022/01/09 08:31:42;;;;;;;7.90;5.43;;;;;;;-2.85;60.05;99883.91;5044342;28;20203;-60
2022/01/09 08:34:07;;;;;;;9.02;5.40;;;;;;;-2.75;61.75;99901.22;5043899;28;20032;-59
2022/01/09 08:36:33;;;;;;;12.63;5.45;;;;;;;-2.88;59.82;99896.50;5043908;28;20155;-60
2022/01/09 08:38:59;;;;;;;10.82;5.93;;;;;;;-2.62;61.65;99887.28;5044111;28;20048;-60
2022/01/09 08:41:25;;;;;;;11.07;5.70;;;;;;;-2.63;61.45;99890.63;5044515;28;20262;-59
2022/01/09 08:43:50;;;;;;;11.95;5.70;;;;;;;-2.65;60.35;99885.50;5044085;28;20037;-59
2022/01/09 08:46:16;;;;;;;9.63;5.30;;;;;;;-2.65;59.85;99882.97;5061610;28;20044;-60
2022/01/09 08:48:42;;;;;;;8.85;5.75;;;;;;;-2.61;60.40;99869.59;5046490;28;20314;-60
2022/01/09 08:51:08;;;;;;;10.63;5.53;;;;;;;-2.77;59.20;99874.94;5046014;28;20029;-60
2022/01/09 08:53:35;;;;;;;8.90;5.78;;;;;;;-2.73;59.67;99881.84;5050506;28;20266;-59
2022/01/09 08:56:05;;;;;;;10.88;5.90;;;;;;;-2.98;59.37;99882.63;5044556;28;20052;-60
2022/01/09 08:58:31;;;;;;;11.48;6.82;;;;;;;-2.68;59.96;99892.13;5044495;28;20041;-60
2022/01/09 09:00:57;;;;;;;11.75;5.68;;;;;;;-2.75;59.44;99885.13;5043499;28;20034;-60
2022/01/09 09:03:23;;;;;;;7.85;4.80;;;;;;;-2.96;59.91;99881.88;5045918;28;20044;-61
2022/01/09 09:05:49;;;;;;;8.68;5.20;;;;;;;-3.00;58.99;99885.09;5044223;28;20135;-60
2022/01/09 09:08:14;;;;;;;9.23;5.32;;;;;;;-2.78;59.98;99890.94;5043631;28;20033;-61
2022/01/09 09:10:40;;;;;;;9.15;6.00;;;;;;;-2.64;59.31;99889.78;5043467;28;20210;-61
2022/01/09 09:13:06;;;;;;;9.60;5.40;;;;;;;-2.90;60.06;99886.31;5059517;28;20326;-60
2022/01/09 09:15:32;;;;;;;10.02;5.70;;;;;;;-2.64;60.88;99894.84;5045087;28;20025;-60
2022/01/09 09:17:57;;;;;;;10.43;6.10;;;;;;;-2.80;61.05;99892.56;5054829;28;20039;-61
2022/01/09 09:20:23;;;;;;;7.70;5.55;;;;;;;-2.69;60.37;99880.28;5048368;28;20025;-60
2022/01/09 09:22:49;;;;;;;9.20;5.97;;;;;;;-2.90;60.03;99900.66;5042868;28;20091;-61
2022/01/09 09:25:15;;;;;;;10.23;5.60;;;;;;;-2.71;60.34;99897.09;5042358;28;20049;-61
2022/01/09 09:27:41;;;;;;;7.43;5.40;;;;;;;-2.72;59.97;99890.28;5045743;28;20105;-61
2022/01/09 09:30:08;;;;;;;8.30;5.90;;;;;;;-2.73;59.58;99874.22;5045972;28;20041;-61
2022/01/09 09:32:34;;;;;;;8.68;5.47;;;;;;;-2.52;59.37;99896.06;5041721;28;20106;-61
2022/01/09 09:34:59;;;;;;;10.02;5.72;;;;;;;-2.68;59.82;99893.00;5031263;28;20037;-59
2022/01/09 09:37:28;;;;;;;10.35;5.40;;;;;;;-2.44;60.41;99893.00;5042437;28;20409;-60
2022/01/09 09:39:54;;;;;;;10.75;6.18;;;;;;;-2.67;58.20;99871.91;5044010;28;20241;-62
2022/01/09 09:42:20;;;;;;;10.95;5.90;;;;;;;-2.51;59.76;99882.56;5042633;28;20025;-61
2022/01/09 09:44:46;;;;;;;11.10;5.75;;;;;;;-2.57;59.37;99882.38;5052988;28;20355;-60
2022/01/09 09:47:12;;;;;;;9.93;5.53;;;;;;;-2.57;58.25;99877.31;5056535;28;20032;-61
2022/01/09 09:49:38;;;;;;;8.80;5.90;;;;;;;-2.43;60.27;99859.19;5057140;28;20060;-61
2022/01/09 09:52:06;;;;;;;11.52;5.40;;;;;;;-2.67;60.72;99787.41;5043766;28;20071;-62
2022/01/09 09:54:32;;;;;;;10.13;5.25;;;;;;;-2.34;58.98;99853.56;5045612;28;20036;-62
2022/01/09 09:56:57;;;;;;;9.13;5.80;;;;;;;-2.42;59.68;99834.72;5043076;28;20025;-61
2022/01/09 09:59:34;;;;;;;9.05;5.22;;;;;;;-2.55;58.95;99848.66;5041793;28;20214;-61
2022/01/09 10:02:00;;;;;;;8.70;5.28;;;;;;;-2.33;59.81;99845.16;5042201;28;20025;-61
2022/01/09 10:04:25;;;;;;;10.50;5.65;;;;;;;-2.10;59.55;99837.44;5042542;28;20036;-62
2022/01/09 10:06:51;;;;;;;11.27;5.45;;;;;;;-2.49;58.12;99840.41;5043072;28;20022;-61
2022/01/09 10:09:19;;;;;;;9.55;5.80;;;;;;;-3.04;58.57;99766.75;5043671;28;20045;-61
2022/01/09 10:11:56;;;;;;;11.02;5.63;;;;;;;-2.53;58.65;99859.72;5042392;28;20041;-61
2022/01/09 10:14:30;;;;;;;10.32;5.45;;;;;;;-2.89;57.94;99794.28;5051190;28;20037;-63
2022/01/09 10:17:05;;;;;;;11.52;5.53;;;;;;;-2.64;58.92;99864.44;5057487;28;20043;-60
2022/01/09 10:19:55;;;;;;;9.70;5.70;;;;;;;-2.44;59.83;99864.22;5050561;28;20029;-61
2022/01/09 10:22:25;;;;;;;13.02;6.20;;;;;;;-2.60;59.33;99876.38;5049844;28;20033;-61
2022/01/09 10:24:51;;;;;;;10.63;6.00;;;;;;;-2.38;59.12;99854.31;5052265;28;20033;-62
2022/01/09 10:27:27;;;;;;;11.00;5.32;;;;;;;-2.84;57.76;99856.09;5046059;28;20032;-62
2022/01/09 10:29:55;;;;;;;9.05;5.25;;;;;;;-2.77;58.50;99811.56;5034381;28;20214;-60
2022/01/09 10:32:24;;;;;;;10.95;6.07;;;;;;;-2.43;59.42;99848.22;5037003;28;20037;-61
2022/01/09 10:35:18;;;;;;;10.75;6.30;;;;;;;-2.56;58.46;99848.63;5042372;28;20100;-61
2022/01/09 10:37:47;;;;;;;11.90;6.28;;;;;;;-2.92;59.80;99786.59;5028651;28;20033;-60
2022/01/09 10:40:29;;;;;;;10.07;5.97;;;;;;;-2.55;60.09;99842.72;5041094;28;20056;-60
2022/01/09 10:43:12;;;;;;;11.05;6.88;;;;;;;-2.48;59.23;99849.72;5042486;28;20029;-60
2022/01/09 10:45:41;;;;;;;7.80;5.40;;;;;;;-2.85;59.20;99783.44;5033050;28;20060;-59
2022/01/09 10:48:22;;;;;;;11.35;5.78;;;;;;;-2.44;59.32;99849.00;5025922;28;20079;-59
2022/01/09 10:50:49;;;;;;;9.40;5.90;;;;;;;-2.87;58.26;99855.16;5048251;28;20359;-59
2022/01/09 10:53:29;;;;;;;10.32;5.93;;;;;;;-3.03;58.54;99801.41;5046096;28;20044;-59
2022/01/09 10:56:10;;;;;;;11.82;6.78;;;;;;;-2.80;nan;99837.66;5061789;28;20033;-59
2022/01/09 10:58:43;;;;;;;9.30;5.40;;;;;;;-2.80;nan;99865.53;5061392;28;20270;-60
2022/01/09 11:01:14;;;;;;;7.65;5.32;;;;;;;-2.74;58.73;99844.63;5045122;28;20030;-59
2022/01/09 11:03:42;;;;;;;11.93;5.55;;;;;;;-3.16;57.49;99779.00;5044119;28;20026;-59
2022/01/09 11:06:09;;;;;;;8.38;5.53;;;;;;;-2.65;59.35;99846.59;5047743;28;20045;-59
2022/01/09 11:08:36;;;;;;;9.60;5.72;;;;;;;-3.03;58.02;99777.75;5046590;28;20025;-60
2022/01/09 11:11:06;;;;;;;10.10;5.72;;;;;;;-2.98;58.79;99845.50;5054154;28;20044;-59
2022/01/09 11:13:35;;;;;;;12.30;5.40;;;;;;;-3.38;57.94;99767.22;5058563;28;20025;-60
2022/01/09 11:18:46;;;;;;;11.50;5.85;;;;;;;-3.06;58.85;99846.03;5058844;28;20093;-59
2022/01/09 11:21:12;;;;;;;10.38;5.78;;;;;;;-2.87;58.92;99835.72;5048947;28;20021;-60
2022/01/09 11:23:59;;;;;;;10.07;5.78;;;;;;;-3.52;58.98;99754.94;5050985;28;20033;-59
2022/01/09 11:26:40;;;;;;;12.68;6.15;;;;;;;-3.08;58.71;99815.56;5044245;28;20030;-59
2022/01/09 11:29:10;;;;;;;10.00;5.82;;;;;;;-3.19;59.11;99766.19;5042175;28;20044;-60
2022/01/09 11:31:54;;;;;;;11.05;5.63;;;;;;;-3.19;58.53;99807.59;5041108;28;20133;-60